ΕΜΥ, Εθνική Μετεωρολογική Υπηρεσία - Δελτία Καιρού, Προγνώσεις

ΑΕΡΟΝΑΥΤΙΛΙΑ

GREEK AIRPORTS CODES

TAF LGKV 060500Z 0606/0706 07010KT 9999 FEW025 BECMG 0610/0612 22010KT FEW025 SCT080 PROB30 TEMPO 0613/0620 7000 SHRA FEW020TCU SCT025 BKN080 BECMG 0618/0620 07012KT=

EUROPEAN AIRPORTS CODES

LFPO 060700Z 11003KT 070V160 CAVOK 23/10 Q1018 NOSIG=